createdAt,value
2022-10-07T00:00:58.881Z,10.53
2022-10-07T00:03:27.763Z,13.07
2022-10-07T00:06:07.262Z,9.10
2022-10-07T00:08:38.355Z,16.33
2022-10-07T00:11:17.963Z,10.83
2022-10-07T00:13:46.689Z,11.53
2022-10-07T00:16:25.633Z,11.83
2022-10-07T00:18:57.788Z,11.80
2022-10-07T00:21:26.764Z,14.80
2022-10-07T00:23:53.791Z,9.50
2022-10-07T00:26:23.656Z,15.77
2022-10-07T00:28:51.048Z,13.70
2022-10-07T00:31:21.054Z,11.17
2022-10-07T00:33:51.954Z,12.43
2022-10-07T00:36:23.862Z,10.37
2022-10-07T00:38:52.674Z,10.23
2022-10-07T00:41:28.116Z,11.13
2022-10-07T00:43:57.423Z,14.47
2022-10-07T00:46:39.489Z,11.83
2022-10-07T00:49:12.783Z,12.03
2022-10-07T00:51:42.156Z,12.07
2022-10-07T00:54:14.424Z,10.27
2022-10-07T00:56:43.118Z,10.73
2022-10-07T00:59:11.088Z,10.83
2022-10-07T01:01:42.193Z,11.63
2022-10-07T01:04:13.538Z,13.53
2022-10-07T01:06:42.949Z,10.03
2022-10-07T01:09:11.980Z,16.17
2022-10-07T01:12:04.987Z,12.77
2022-10-07T01:14:49.355Z,11.80
2022-10-07T01:17:36.513Z,12.97
2022-10-07T01:20:33.069Z,12.80
2022-10-07T01:23:21.182Z,11.33
2022-10-07T01:26:25.712Z,13.50
2022-10-07T01:29:08.441Z,14.00
2022-10-07T01:31:47.927Z,15.50
2022-10-07T01:34:16.713Z,11.17
2022-10-07T01:36:50.903Z,12.03
2022-10-07T01:39:21.901Z,17.40
2022-10-07T01:41:50.830Z,13.37
2022-10-07T01:44:20.547Z,15.40
2022-10-07T01:46:47.950Z,15.17
2022-10-07T01:49:14.737Z,14.83
2022-10-07T01:51:42.148Z,7.40
2022-10-07T01:54:39.078Z,16.70
2022-10-07T01:57:18.628Z,14.37
2022-10-07T02:00:03.560Z,13.67
2022-10-07T02:02:39.575Z,11.23
2022-10-07T02:05:21.649Z,16.43
2022-10-07T02:08:07.765Z,16.77
2022-10-07T02:10:37.658Z,21.47
2022-10-07T02:13:12.403Z,19.17
2022-10-07T02:16:00.223Z,14.53
2022-10-07T02:18:28.640Z,15.13
2022-10-07T02:20:55.951Z,20.30
2022-10-07T02:23:23.738Z,17.80
2022-10-07T02:25:57.117Z,13.47
2022-10-07T02:28:25.512Z,15.67
2022-10-07T02:30:55.861Z,14.83
2022-10-07T02:33:27.318Z,14.37
2022-10-07T02:35:59.155Z,17.17
2022-10-07T02:38:26.617Z,15.30
2022-10-07T02:40:53.403Z,16.23
2022-10-07T02:43:49.495Z,15.10
2022-10-07T02:46:30.310Z,16.90
2022-10-07T02:49:05.833Z,16.33
2022-10-07T02:51:48.306Z,19.50
2022-10-07T02:54:20.470Z,12.93
2022-10-07T02:56:50.103Z,14.30
2022-10-07T02:59:25.482Z,19.63
2022-10-07T03:01:55.950Z,14.73
2022-10-07T03:04:24.102Z,12.87
2022-10-07T03:06:51.586Z,18.03
2022-10-07T03:09:21.336Z,13.53
2022-10-07T03:11:50.452Z,20.73
2022-10-07T03:14:19.004Z,14.73
2022-10-07T03:16:45.786Z,12.37
2022-10-07T03:19:12.571Z,21.60
2022-10-07T03:21:40.574Z,17.80
2022-10-07T03:24:07.278Z,15.73
2022-10-07T03:26:35.143Z,19.57
2022-10-07T03:29:02.403Z,17.87
2022-10-07T03:31:29.356Z,18.17
2022-10-07T03:33:57.223Z,23.60
2022-10-07T03:36:25.216Z,19.47
2022-10-07T03:38:52.030Z,15.00
2022-10-07T03:41:19.466Z,21.20
2022-10-07T03:43:47.363Z,22.83
2022-10-07T03:46:14.315Z,18.13
2022-10-07T03:48:41.271Z,15.17
2022-10-07T03:51:08.305Z,21.70
2022-10-07T03:53:38.519Z,21.10
2022-10-07T03:56:07.577Z,17.37
2022-10-07T03:58:34.726Z,25.10
2022-10-07T04:01:09.171Z,20.87
2022-10-07T04:03:35.938Z,19.87
2022-10-07T04:06:05.906Z,18.07
2022-10-07T04:08:33.313Z,22.10
2022-10-07T04:11:01.677Z,21.23
2022-10-07T04:13:29.016Z,17.73
2022-10-07T04:15:56.091Z,20.90
2022-10-07T04:18:24.344Z,20.53
2022-10-07T04:20:51.116Z,18.07
2022-10-07T04:23:17.941Z,26.47
2022-10-07T04:25:46.794Z,20.13
2022-10-07T04:28:20.518Z,19.30
2022-10-07T04:30:51.456Z,31.60
2022-10-07T04:33:19.328Z,19.13
2022-10-07T04:35:46.346Z,19.97
2022-10-07T04:38:16.055Z,23.07
2022-10-07T04:40:49.959Z,23.17
2022-10-07T04:43:23.624Z,22.37
2022-10-07T04:45:59.785Z,17.20
2022-10-07T04:48:27.370Z,25.30
2022-10-07T04:50:54.817Z,22.20
2022-10-07T04:53:21.974Z,20.80
2022-10-07T04:55:51.928Z,18.33
2022-10-07T04:58:19.775Z,18.20
2022-10-07T05:00:48.805Z,23.47
2022-10-07T05:03:17.197Z,22.70
2022-10-07T05:05:46.017Z,18.77
2022-10-07T05:08:16.687Z,18.50
2022-10-07T05:10:43.521Z,19.90
2022-10-07T05:13:12.988Z,13.17
2022-10-07T05:15:50.735Z,22.63
2022-10-07T05:18:19.284Z,23.10
2022-10-07T05:20:47.673Z,20.00
2022-10-07T05:23:22.226Z,19.20
2022-10-07T05:26:02.019Z,20.20
2022-10-07T05:28:29.106Z,14.30
2022-10-07T05:31:11.545Z,19.53
2022-10-07T05:33:38.692Z,22.73
2022-10-07T05:36:07.147Z,19.10
2022-10-07T05:38:34.100Z,23.83
2022-10-07T05:41:03.106Z,26.03
2022-10-07T05:43:32.045Z,20.53
2022-10-07T05:46:04.100Z,26.90
2022-10-07T05:48:36.624Z,18.43
2022-10-07T05:51:07.411Z,19.33
2022-10-07T05:53:34.855Z,17.67
2022-10-07T05:56:09.557Z,21.60
2022-10-07T05:58:36.680Z,24.03
2022-10-07T06:01:12.991Z,24.40
2022-10-07T06:03:41.180Z,14.93
2022-10-07T06:06:11.780Z,19.37
2022-10-07T06:08:38.509Z,20.80
2022-10-07T06:11:25.091Z,17.60
2022-10-07T06:13:54.133Z,16.10
2022-10-07T06:16:21.244Z,27.90
2022-10-07T06:18:50.433Z,14.03
2022-10-07T06:21:17.512Z,16.47
2022-10-07T06:23:44.326Z,27.33
2022-10-07T06:26:13.681Z,10.03
2022-10-07T06:28:42.206Z,17.70
2022-10-07T06:31:11.634Z,18.47
2022-10-07T06:33:38.555Z,17.77
2022-10-07T06:36:07.155Z,18.63
2022-10-07T06:38:34.439Z,17.60
2022-10-07T06:41:02.949Z,19.60
2022-10-07T06:43:32.016Z,14.50
2022-10-07T06:46:04.253Z,17.17
2022-10-07T06:48:33.158Z,16.10
2022-10-07T06:51:03.370Z,13.23
2022-10-07T06:53:31.133Z,13.20
2022-10-07T06:56:02.499Z,11.20
2022-10-07T06:58:29.913Z,14.33
2022-10-07T07:00:59.603Z,9.23
2022-10-07T07:03:26.956Z,15.50
2022-10-07T07:05:55.127Z,14.00
2022-10-07T07:08:24.318Z,14.23
2022-10-07T07:10:51.623Z,17.77
2022-10-07T07:13:18.358Z,15.33
2022-10-07T07:15:59.167Z,14.67
2022-10-07T07:18:26.416Z,14.60
2022-10-07T07:20:53.872Z,15.17
2022-10-07T07:23:20.556Z,12.87
2022-10-07T07:25:47.336Z,12.87
2022-10-07T07:28:15.584Z,14.40
2022-10-07T07:30:42.807Z,14.87
2022-10-07T07:33:10.433Z,15.70
2022-10-07T07:35:41.461Z,12.47
2022-10-07T07:38:08.896Z,16.73
2022-10-07T07:40:39.793Z,12.30
2022-10-07T07:43:08.656Z,12.27
2022-10-07T07:45:36.928Z,17.80
2022-10-07T07:48:04.739Z,12.73
2022-10-07T07:50:31.775Z,10.47
2022-10-07T07:53:00.258Z,11.97
2022-10-07T07:55:27.181Z,15.30
2022-10-07T07:57:57.953Z,15.80
2022-10-07T08:00:24.867Z,15.37
2022-10-07T08:02:53.190Z,13.93
2022-10-07T08:05:24.166Z,11.60
2022-10-07T08:07:51.891Z,10.40
2022-10-07T08:10:18.728Z,16.30
2022-10-07T08:12:45.456Z,11.47
2022-10-07T08:15:12.200Z,10.50
2022-10-07T08:17:39.180Z,10.73
2022-10-07T08:20:06.569Z,15.73
2022-10-07T08:22:34.548Z,11.80
2022-10-07T08:25:07.490Z,10.00
2022-10-07T08:27:34.167Z,14.83
2022-10-07T08:30:00.962Z,10.30
2022-10-07T08:32:27.675Z,17.00
2022-10-07T08:34:54.425Z,13.13
2022-10-07T08:37:38.949Z,14.23
2022-10-07T08:40:06.294Z,10.17
2022-10-07T08:42:38.302Z,11.33
2022-10-07T08:45:10.430Z,14.23
2022-10-07T08:47:44.163Z,14.13
2022-10-07T08:50:26.158Z,12.47
2022-10-07T08:53:08.868Z,13.20
2022-10-07T08:55:43.809Z,17.67
2022-10-07T08:58:22.251Z,10.90
2022-10-07T09:01:24.233Z,13.10
2022-10-07T09:03:54.036Z,16.20
2022-10-07T09:07:02.486Z,9.33
2022-10-07T09:09:48.716Z,15.63
2022-10-07T09:12:22.861Z,11.37
2022-10-07T09:14:57.603Z,16.77
2022-10-07T09:17:35.410Z,12.90
2022-10-07T09:20:26.917Z,15.73
2022-10-07T09:23:03.086Z,10.68
2022-10-07T09:25:31.267Z,14.60
2022-10-07T09:27:59.967Z,13.85
2022-10-07T09:30:32.492Z,12.48
2022-10-07T09:32:59.363Z,12.80
2022-10-07T09:35:29.768Z,8.73
2022-10-07T09:38:00.720Z,11.82
2022-10-07T09:40:27.370Z,16.13
2022-10-07T09:43:02.389Z,14.02
2022-10-07T09:45:33.524Z,13.32
2022-10-07T09:48:11.184Z,11.93
2022-10-07T09:50:48.651Z,11.65
2022-10-07T09:53:33.363Z,9.48
2022-10-07T09:56:00.217Z,11.07
2022-10-07T09:58:33.273Z,12.70
2022-10-07T10:01:11.018Z,12.52
2022-10-07T10:03:38.519Z,15.52
2022-10-07T10:06:09.185Z,13.63
2022-10-07T10:08:40.090Z,13.10
2022-10-07T10:11:19.686Z,8.75
2022-10-07T10:13:48.288Z,12.20
2022-10-07T10:16:36.210Z,16.38
2022-10-07T10:19:23.637Z,14.35
2022-10-07T10:21:57.761Z,8.48
2022-10-07T10:24:45.917Z,14.85
2022-10-07T10:27:26.271Z,10.32
2022-10-07T10:30:02.132Z,12.07
2022-10-07T10:32:44.236Z,11.65
2022-10-07T10:35:22.312Z,10.32
2022-10-07T10:38:01.363Z,14.02
2022-10-07T10:40:50.014Z,12.68
2022-10-07T10:43:45.937Z,14.57
2022-10-07T10:46:27.065Z,14.38
2022-10-07T10:49:10.871Z,12.60
2022-10-07T10:51:53.323Z,12.52
2022-10-07T10:55:06.278Z,10.05
2022-10-07T10:57:48.048Z,12.07
2022-10-07T11:00:24.229Z,12.50
2022-10-07T11:03:02.328Z,9.52
2022-10-07T11:05:35.480Z,11.90
2022-10-07T11:08:11.422Z,12.10
2022-10-07T11:10:53.831Z,11.75
2022-10-07T11:13:56.162Z,12.48
2022-10-07T11:17:05.122Z,9.55
2022-10-07T11:19:37.666Z,11.57
2022-10-07T11:22:11.865Z,10.50
2022-10-07T11:24:50.025Z,9.68
2022-10-07T11:27:24.901Z,9.93
2022-10-07T11:30:18.243Z,11.55
2022-10-07T11:33:17.522Z,8.77
2022-10-07T11:35:59.371Z,11.05
2022-10-07T11:38:33.711Z,10.27
2022-10-07T11:41:11.204Z,8.18
2022-10-07T11:43:50.677Z,9.00
2022-10-07T11:46:19.513Z,8.30
2022-10-07T11:49:12.786Z,9.98
2022-10-07T11:51:48.178Z,12.05
2022-10-07T11:54:20.090Z,7.53
2022-10-07T11:56:52.289Z,6.70
2022-10-07T12:02:28.218Z,13.25
2022-10-07T12:04:57.483Z,12.00
2022-10-07T12:07:34.854Z,9.85
2022-10-07T12:10:04.935Z,8.30
2022-10-07T12:12:53.735Z,7.50
2022-10-07T12:15:35.839Z,10.80
2022-10-07T12:18:09.635Z,9.52
2022-10-07T12:20:51.414Z,8.48
2022-10-07T12:23:25.548Z,9.82
2022-10-07T12:25:54.787Z,9.00
2022-10-07T12:28:45.691Z,9.70
2022-10-07T12:31:15.630Z,11.25
2022-10-07T12:33:47.024Z,7.47
2022-10-07T12:36:22.381Z,9.38
2022-10-07T12:39:01.106Z,8.98
2022-10-07T12:41:40.523Z,8.60
2022-10-07T12:44:19.932Z,5.18
2022-10-07T12:47:08.328Z,8.45
2022-10-07T12:49:50.365Z,10.00
2022-10-07T12:52:27.393Z,8.70
2022-10-07T12:54:58.794Z,8.40
2022-10-07T12:57:38.787Z,12.38
2022-10-07T13:00:17.561Z,8.52
2022-10-07T13:03:15.426Z,7.32
2022-10-07T13:05:43.766Z,11.15
2022-10-07T13:08:35.367Z,13.93
2022-10-07T13:11:35.067Z,8.65
2022-10-07T13:14:42.743Z,7.82
2022-10-07T13:17:28.085Z,6.57
2022-10-07T13:20:28.151Z,9.25
2022-10-07T13:22:56.242Z,9.73
2022-10-07T13:25:25.209Z,5.53
2022-10-07T13:27:59.877Z,10.63
2022-10-07T13:30:41.331Z,7.05
2022-10-07T13:33:32.086Z,6.65
2022-10-07T13:36:21.863Z,9.90
2022-10-07T13:38:51.451Z,7.07
2022-10-07T13:41:23.144Z,5.88
2022-10-07T13:43:54.722Z,6.13
2022-10-07T13:46:24.490Z,9.70
2022-10-07T13:48:52.276Z,7.97
2022-10-07T13:51:34.733Z,8.70
2022-10-07T13:54:07.975Z,6.78
2022-10-07T13:56:42.875Z,8.23
2022-10-07T13:59:18.427Z,8.38
2022-10-07T14:01:48.712Z,10.60
2022-10-07T14:04:18.872Z,6.95
2022-10-07T14:07:13.273Z,7.80
2022-10-07T14:09:51.559Z,8.77
2022-10-07T14:12:30.235Z,8.60
2022-10-07T14:15:06.439Z,10.57
2022-10-07T14:17:39.111Z,11.13
2022-10-07T14:20:26.140Z,8.88
2022-10-07T14:22:57.575Z,7.13
2022-10-07T14:25:31.515Z,9.10
2022-10-07T14:27:58.991Z,6.90
2022-10-07T14:30:26.219Z,6.82
2022-10-07T14:33:32.590Z,5.30
2022-10-07T14:36:10.710Z,9.48
2022-10-07T14:38:37.838Z,7.95
2022-10-07T14:41:07.342Z,9.40
2022-10-07T14:43:37.700Z,6.18
2022-10-07T14:46:11.718Z,11.35
2022-10-07T14:48:38.967Z,6.75
2022-10-07T14:51:06.073Z,11.60
2022-10-07T14:53:34.324Z,10.60
2022-10-07T14:56:01.136Z,12.23
2022-10-07T14:58:31.092Z,9.35
2022-10-07T15:00:58.157Z,11.43
2022-10-07T15:03:24.996Z,12.05
2022-10-07T15:05:51.943Z,7.72
2022-10-07T15:08:18.818Z,7.57
2022-10-07T15:10:46.189Z,9.82
2022-10-07T15:13:13.551Z,10.55
2022-10-07T15:15:42.389Z,11.73
2022-10-07T15:18:11.448Z,11.52
2022-10-07T15:20:41.619Z,8.68
2022-10-07T15:23:09.374Z,10.32
2022-10-07T15:25:40.596Z,12.65
2022-10-07T15:28:07.349Z,5.90
2022-10-07T15:30:39.118Z,7.93
2022-10-07T15:33:06.341Z,10.55
2022-10-07T15:35:33.374Z,10.25
2022-10-07T15:38:00.164Z,8.18
2022-10-07T15:40:27.003Z,7.18
2022-10-07T15:42:53.748Z,9.60
2022-10-07T15:45:20.524Z,7.57
2022-10-07T15:47:47.251Z,9.15
2022-10-07T15:50:15.372Z,8.60
2022-10-07T15:52:42.110Z,9.68
2022-10-07T15:55:09.124Z,7.82
2022-10-07T15:57:35.919Z,8.63
2022-10-07T16:00:03.644Z,10.80
2022-10-07T16:02:30.448Z,8.23
2022-10-07T16:04:57.473Z,9.85
2022-10-07T16:07:24.288Z,8.80
2022-10-07T16:09:51.085Z,11.77
2022-10-07T16:12:17.888Z,8.07
2022-10-07T16:14:44.570Z,8.88
2022-10-07T16:17:11.350Z,10.32
2022-10-07T16:19:38.325Z,9.45
2022-10-07T16:22:05.274Z,7.25
2022-10-07T16:24:35.297Z,7.65
2022-10-07T16:27:03.552Z,13.25
2022-10-07T16:29:48.791Z,10.95
2022-10-07T16:32:17.881Z,5.85
2022-10-07T16:34:44.891Z,8.13
2022-10-07T16:37:12.691Z,7.88
2022-10-07T16:39:39.552Z,10.10
2022-10-07T16:42:06.998Z,9.10
2022-10-07T16:44:33.863Z,10.95
2022-10-07T16:47:01.191Z,8.63
2022-10-07T16:49:29.414Z,7.78
2022-10-07T16:51:56.999Z,6.97
2022-10-07T16:54:24.163Z,10.85
2022-10-07T16:56:52.602Z,8.55
2022-10-07T16:59:24.060Z,7.13
2022-10-07T17:01:56.186Z,12.68
2022-10-07T17:04:24.943Z,10.27
2022-10-07T17:06:52.465Z,10.82
2022-10-07T17:09:19.291Z,7.35
2022-10-07T17:11:46.644Z,8.93
2022-10-07T17:14:16.464Z,7.78
2022-10-07T17:16:52.602Z,11.77
2022-10-07T17:19:25.201Z,9.50
2022-10-07T17:21:53.854Z,9.40
2022-10-07T17:24:22.450Z,6.70
2022-10-07T17:26:50.259Z,10.23
2022-10-07T17:29:21.575Z,8.33
2022-10-07T17:31:50.636Z,9.13
2022-10-07T17:34:20.025Z,9.77
2022-10-07T17:36:47.949Z,7.73
2022-10-07T17:39:15.813Z,7.20
2022-10-07T17:41:42.827Z,9.23
2022-10-07T17:44:13.220Z,8.97
2022-10-07T17:46:40.826Z,9.93
2022-10-07T17:49:13.412Z,9.97
2022-10-07T17:51:42.637Z,10.70
2022-10-07T17:54:11.968Z,12.47
2022-10-07T17:56:38.926Z,10.00
2022-10-07T17:59:05.917Z,10.93
2022-10-07T18:01:34.694Z,9.53
2022-10-07T18:04:04.458Z,7.82
2022-10-07T18:06:34.232Z,8.90
2022-10-07T18:09:05.002Z,10.60
2022-10-07T18:11:51.163Z,9.90
2022-10-07T18:14:37.543Z,10.93
2022-10-07T18:17:05.849Z,8.03
2022-10-07T18:19:33.642Z,11.37
2022-10-07T18:22:01.144Z,15.63
2022-10-07T18:24:28.885Z,8.07
2022-10-07T18:27:00.677Z,10.87
2022-10-07T18:29:32.676Z,10.67
2022-10-07T18:32:00.497Z,11.17
2022-10-07T18:34:27.807Z,6.73
2022-10-07T18:36:56.940Z,9.07
2022-10-07T18:39:24.989Z,10.30
2022-10-07T18:41:52.877Z,9.47
2022-10-07T18:44:19.816Z,10.83
2022-10-07T18:46:49.632Z,13.43
2022-10-07T18:49:16.556Z,10.40
2022-10-07T18:51:43.381Z,9.10
2022-10-07T18:54:11.147Z,8.83
2022-10-07T18:56:41.127Z,9.07
2022-10-07T18:59:09.741Z,11.53
2022-10-07T19:01:37.577Z,9.73
2022-10-07T19:04:06.392Z,11.60
2022-10-07T19:06:35.443Z,5.53
2022-10-07T19:09:07.238Z,7.83
2022-10-07T19:11:34.650Z,9.50
2022-10-07T19:14:01.932Z,6.70
2022-10-07T19:16:42.069Z,14.47
2022-10-07T19:19:12.243Z,13.50
2022-10-07T19:21:40.414Z,11.80
2022-10-07T19:24:07.718Z,10.87
2022-10-07T19:26:40.439Z,12.27
2022-10-07T19:29:09.306Z,8.07
2022-10-07T19:31:40.602Z,21.57
2022-10-07T19:34:14.099Z,11.10
2022-10-07T19:36:46.974Z,9.50
2022-10-07T19:39:23.665Z,10.17
2022-10-07T19:41:52.148Z,11.33
2022-10-07T19:44:19.406Z,10.10
2022-10-07T19:46:50.512Z,9.90
2022-10-07T19:49:17.378Z,7.73
2022-10-07T19:51:45.594Z,8.93
2022-10-07T19:54:13.167Z,13.03
2022-10-07T19:56:40.700Z,11.20
2022-10-07T19:59:10.115Z,9.37
2022-10-07T20:01:41.368Z,8.63
2022-10-07T20:04:20.971Z,10.07
2022-10-07T20:06:48.341Z,10.47
2022-10-07T20:09:18.430Z,10.53
2022-10-07T20:11:46.864Z,10.27
2022-10-07T20:14:15.336Z,14.90
2022-10-07T20:16:42.957Z,12.10
2022-10-07T20:19:18.728Z,9.93
2022-10-07T20:21:45.788Z,10.17
2022-10-07T20:24:16.471Z,10.67
2022-10-07T20:26:44.402Z,10.10
2022-10-07T20:29:13.873Z,5.80
2022-10-07T20:31:42.276Z,8.80
2022-10-07T20:34:14.422Z,10.53
2022-10-07T20:36:42.163Z,9.10
2022-10-07T20:39:59.321Z,11.67
2022-10-07T20:42:28.884Z,10.37
2022-10-07T20:45:00.436Z,11.80
2022-10-07T20:47:30.596Z,9.90
2022-10-07T20:49:59.728Z,8.30
2022-10-07T20:52:28.075Z,10.43
2022-10-07T20:54:55.255Z,11.43
2022-10-07T20:57:24.381Z,11.10
2022-10-07T20:59:51.941Z,8.43
2022-10-07T21:02:20.947Z,8.77
2022-10-07T21:04:48.241Z,8.57
2022-10-07T21:07:16.169Z,11.63
2022-10-07T21:09:43.070Z,10.43
2022-10-07T21:12:13.806Z,14.43
2022-10-07T21:14:44.862Z,11.53
2022-10-07T21:17:12.816Z,12.27
2022-10-07T21:19:40.178Z,12.03
2022-10-07T21:22:07.500Z,9.97
2022-10-07T21:24:34.858Z,10.40
2022-10-07T21:27:03.669Z,9.33
2022-10-07T21:29:33.766Z,16.43
2022-10-07T21:32:03.609Z,12.27
2022-10-07T21:34:30.477Z,6.93
2022-10-07T21:36:57.726Z,8.43
2022-10-07T21:39:26.274Z,13.97
2022-10-07T21:41:53.682Z,15.97
2022-10-07T21:44:20.871Z,8.77
2022-10-07T21:46:47.777Z,9.63
2022-10-07T21:49:16.493Z,12.80
2022-10-07T21:51:43.700Z,10.07
2022-10-07T21:54:15.855Z,11.93
2022-10-07T21:56:45.933Z,9.37
2022-10-07T21:59:13.607Z,6.67
2022-10-07T22:01:41.924Z,12.93
2022-10-07T22:04:15.952Z,13.23
2022-10-07T22:07:01.859Z,10.30
2022-10-07T22:09:29.258Z,10.40
2022-10-07T22:11:58.160Z,12.83
2022-10-07T22:14:25.009Z,11.73
2022-10-07T22:16:54.870Z,10.77
2022-10-07T22:19:23.150Z,13.83
2022-10-07T22:21:51.690Z,13.83
2022-10-07T22:24:18.520Z,11.07
2022-10-07T22:26:47.557Z,11.93
2022-10-07T22:29:16.616Z,13.83
2022-10-07T22:31:44.378Z,10.93
2022-10-07T22:34:34.080Z,11.13
2022-10-07T22:37:01.350Z,11.10
2022-10-07T22:39:29.588Z,15.10
2022-10-07T22:42:01.061Z,10.67
2022-10-07T22:44:28.644Z,11.73
2022-10-07T22:46:56.791Z,13.83
2022-10-07T22:49:28.596Z,9.67
2022-10-07T22:51:56.620Z,9.00
2022-10-07T22:54:23.457Z,8.80
2022-10-07T22:56:52.918Z,14.37
2022-10-07T22:59:20.317Z,8.93
2022-10-07T23:01:47.181Z,11.77
2022-10-07T23:04:16.131Z,12.87
2022-10-07T23:06:42.996Z,10.87
2022-10-07T23:09:10.134Z,10.87
2022-10-07T23:11:36.993Z,13.93
2022-10-07T23:14:04.430Z,11.60
2022-10-07T23:16:33.917Z,10.67
2022-10-07T23:19:00.908Z,8.73
2022-10-07T23:21:32.575Z,9.43
2022-10-07T23:24:05.881Z,8.70
2022-10-07T23:26:34.322Z,9.73
2022-10-07T23:29:02.489Z,13.77
2022-10-07T23:31:31.694Z,12.37
2022-10-07T23:34:01.180Z,14.30
2022-10-07T23:36:32.368Z,11.90
2022-10-07T23:39:00.957Z,10.17
2022-10-07T23:41:29.839Z,12.47
2022-10-07T23:43:58.701Z,11.83
2022-10-07T23:46:28.823Z,11.37
2022-10-07T23:48:56.208Z,8.50
2022-10-07T23:51:26.185Z,12.80
2022-10-07T23:53:56.561Z,11.17
2022-10-07T23:56:23.745Z,12.00
2022-10-07T23:58:50.576Z,15.10
